sensor_id;sensor_type;location;lat;lon;timestamp;temperature;humidity
70151;DHT22;57517;43.562;19.540;2022-09-27T00:01:04;410.40;2355.20
70151;DHT22;57517;43.562;19.540;2022-09-27T00:03:31;410.50;2355.20
70151;DHT22;57517;43.562;19.540;2022-09-27T00:06:19;410.50;2355.20
70151;DHT22;57517;43.562;19.540;2022-09-27T00:08:46;435.20;2355.20
70151;DHT22;57517;43.562;19.540;2022-09-27T00:11:32;435.30;2355.20
70151;DHT22;57517;43.562;19.540;2022-09-27T00:13:59;435.20;2355.20
70151;DHT22;57517;43.562;19.540;2022-09-27T00:16:27;410.50;2355.20
70151;DHT22;57517;43.562;19.540;2022-09-27T00:18:57;435.20;2355.20
70151;DHT22;57517;43.562;19.540;2022-09-27T00:21:24;435.30;2355.20
70151;DHT22;57517;43.562;19.540;2022-09-27T00:23:50;435.20;2355.20
70151;DHT22;57517;43.562;19.540;2022-09-27T00:26:16;410.50;2355.20
70151;DHT22;57517;43.562;19.540;2022-09-27T00:28:42;410.40;2355.20
70151;DHT22;57517;43.562;19.540;2022-09-27T00:31:17;410.30;2355.20
70151;DHT22;57517;43.562;19.540;2022-09-27T00:33:48;410.20;2355.20
70151;DHT22;57517;43.562;19.540;2022-09-27T00:36:15;410.10;2355.20
70151;DHT22;57517;43.562;19.540;2022-09-27T00:38:42;410.10;2355.20
70151;DHT22;57517;43.562;19.540;2022-09-27T00:41:20;410.20;2355.20
70151;DHT22;57517;43.562;19.540;2022-09-27T00:43:51;410.40;2355.20
70151;DHT22;57517;43.562;19.540;2022-09-27T00:49:25;410.50;2355.20
70151;DHT22;57517;43.562;19.540;2022-09-27T00:52:13;435.20;2355.20
70151;DHT22;57517;43.562;19.540;2022-09-27T00:54:41;435.30;2355.20
70151;DHT22;57517;43.562;19.540;2022-09-27T00:57:09;410.50;2355.20
70151;DHT22;57517;43.562;19.540;2022-09-27T00:59:51;410.50;2355.20
70151;DHT22;57517;43.562;19.540;2022-09-27T01:02:18;410.20;2355.20
70151;DHT22;57517;43.562;19.540;2022-09-27T01:04:44;410.30;2355.20
70151;DHT22;57517;43.562;19.540;2022-09-27T01:07:12;410.30;2355.20
70151;DHT22;57517;43.562;19.540;2022-09-27T01:09:38;410.40;2355.20
70151;DHT22;57517;43.562;19.540;2022-09-27T01:12:41;410.50;2355.20
70151;DHT22;57517;43.562;19.540;2022-09-27T01:17:50;435.30;2355.20
70151;DHT22;57517;43.562;19.540;2022-09-27T01:20:39;435.30;2355.20
70151;DHT22;57517;43.562;19.540;2022-09-27T01:31:26;435.30;2355.20
70151;DHT22;57517;43.562;19.540;2022-09-27T01:34:25;435.30;2355.20
70151;DHT22;57517;43.562;19.540;2022-09-27T01:37:11;435.30;2355.20
70151;DHT22;57517;43.562;19.540;2022-09-27T01:42:39;435.30;2355.20
70151;DHT22;57517;43.562;19.540;2022-09-27T01:45:34;410.50;2355.20
70151;DHT22;57517;43.562;19.540;2022-09-27T01:48:06;410.40;2355.20
70151;DHT22;57517;43.562;19.540;2022-09-27T01:50:41;410.30;2355.20
70151;DHT22;57517;43.562;19.540;2022-09-27T01:53:43;410.30;2355.20
70151;DHT22;57517;43.562;19.540;2022-09-27T01:56:14;410.40;2355.20
70151;DHT22;57517;43.562;19.540;2022-09-27T01:59:06;410.40;2355.20
70151;DHT22;57517;43.562;19.540;2022-09-27T02:01:35;410.50;2355.20
70151;DHT22;57517;43.562;19.540;2022-09-27T02:04:04;410.50;2355.20
70151;DHT22;57517;43.562;19.540;2022-09-27T02:06:37;410.50;2355.20
70151;DHT22;57517;43.562;19.540;2022-09-27T02:11:42;410.40;2355.20
70151;DHT22;57517;43.562;19.540;2022-09-27T02:14:37;410.50;2355.20
70151;DHT22;57517;43.562;19.540;2022-09-27T02:17:11;435.30;2355.20
70151;DHT22;57517;43.562;19.540;2022-09-27T02:22:15;435.30;2355.20
70151;DHT22;57517;43.562;19.540;2022-09-27T02:25:09;435.30;2355.20
70151;DHT22;57517;43.562;19.540;2022-09-27T02:28:12;435.20;2355.20
70151;DHT22;57517;43.562;19.540;2022-09-27T02:30:42;410.50;2355.20
70151;DHT22;57517;43.562;19.540;2022-09-27T02:33:08;435.20;2355.20
70151;DHT22;57517;43.562;19.540;2022-09-27T02:35:35;410.50;2355.20
70151;DHT22;57517;43.562;19.540;2022-09-27T02:38:03;410.50;2355.20
70151;DHT22;57517;43.562;19.540;2022-09-27T02:40:34;410.50;2355.20
70151;DHT22;57517;43.562;19.540;2022-09-27T02:43:03;410.50;2355.20
70151;DHT22;57517;43.562;19.540;2022-09-27T02:48:20;410.50;2355.20
70151;DHT22;57517;43.562;19.540;2022-09-27T02:51:00;410.50;2355.20
70151;DHT22;57517;43.562;19.540;2022-09-27T02:56:59;410.50;2355.20
70151;DHT22;57517;43.562;19.540;2022-09-27T03:04:52;410.50;2355.20
70151;DHT22;57517;43.562;19.540;2022-09-27T03:07:20;410.50;2355.20
70151;DHT22;57517;43.562;19.540;2022-09-27T03:09:48;410.50;2355.20
70151;DHT22;57517;43.562;19.540;2022-09-27T03:12:16;410.40;2355.20
70151;DHT22;57517;43.562;19.540;2022-09-27T03:14:55;410.40;2355.20
70151;DHT22;57517;43.562;19.540;2022-09-27T03:17:21;410.30;2355.20
70151;DHT22;57517;43.562;19.540;2022-09-27T03:19:47;410.40;2355.20
70151;DHT22;57517;43.562;19.540;2022-09-27T03:22:14;410.40;2355.20
70151;DHT22;57517;43.562;19.540;2022-09-27T03:24:40;410.40;2355.20
70151;DHT22;57517;43.562;19.540;2022-09-27T03:27:06;410.30;2355.20
70151;DHT22;57517;43.562;19.540;2022-09-27T03:29:31;410.30;2355.20
70151;DHT22;57517;43.562;19.540;2022-09-27T03:31:58;410.40;2355.20
70151;DHT22;57517;43.562;19.540;2022-09-27T03:34:24;410.40;2355.20
70151;DHT22;57517;43.562;19.540;2022-09-27T03:36:49;410.50;2355.20
70151;DHT22;57517;43.562;19.540;2022-09-27T03:39:15;410.40;2355.20
70151;DHT22;57517;43.562;19.540;2022-09-27T03:41:41;410.40;2355.20
70151;DHT22;57517;43.562;19.540;2022-09-27T03:44:07;410.30;2355.20
70151;DHT22;57517;43.562;19.540;2022-09-27T03:46:33;410.30;2355.20
70151;DHT22;57517;43.562;19.540;2022-09-27T03:48:59;410.40;2355.20
70151;DHT22;57517;43.562;19.540;2022-09-27T03:51:25;410.30;2355.20
70151;DHT22;57517;43.562;19.540;2022-09-27T03:53:52;410.40;2355.20
70151;DHT22;57517;43.562;19.540;2022-09-27T03:56:18;410.40;2355.20
70151;DHT22;57517;43.562;19.540;2022-09-27T03:58:43;410.40;2355.20
70151;DHT22;57517;43.562;19.540;2022-09-27T04:01:09;410.40;2355.20
70151;DHT22;57517;43.562;19.540;2022-09-27T04:03:35;410.50;2355.20
70151;DHT22;57517;43.562;19.540;2022-09-27T04:06:03;410.50;2355.20
70151;DHT22;57517;43.562;19.540;2022-09-27T04:08:28;410.50;2355.20
70151;DHT22;57517;43.562;19.540;2022-09-27T04:10:55;410.50;2355.20
70151;DHT22;57517;43.562;19.540;2022-09-27T04:13:21;410.50;2355.20
70151;DHT22;57517;43.562;19.540;2022-09-27T04:15:47;435.20;2355.20
70151;DHT22;57517;43.562;19.540;2022-09-27T04:18:13;410.40;2355.20
70151;DHT22;57517;43.562;19.540;2022-09-27T04:20:39;410.30;2355.20
70151;DHT22;57517;43.562;19.540;2022-09-27T04:23:05;410.20;2355.20
70151;DHT22;57517;43.562;19.540;2022-09-27T04:25:31;410.20;2355.20
70151;DHT22;57517;43.562;19.540;2022-09-27T04:28:00;410.20;2355.20
70151;DHT22;57517;43.562;19.540;2022-09-27T04:30:30;410.00;2355.20
70151;DHT22;57517;43.562;19.540;2022-09-27T04:32:56;409.80;2355.20
70151;DHT22;57517;43.562;19.540;2022-09-27T04:35:21;409.80;2355.20
70151;DHT22;57517;43.562;19.540;2022-09-27T04:38:05;409.80;2355.20
70151;DHT22;57517;43.562;19.540;2022-09-27T04:40:34;409.80;2355.20
70151;DHT22;57517;43.562;19.540;2022-09-27T04:43:01;409.80;2355.20
70151;DHT22;57517;43.562;19.540;2022-09-27T04:45:27;409.80;2355.20
70151;DHT22;57517;43.562;19.540;2022-09-27T04:47:53;409.90;2355.20
70151;DHT22;57517;43.562;19.540;2022-09-27T04:50:19;409.90;2355.20
70151;DHT22;57517;43.562;19.540;2022-09-27T04:52:49;410.00;2355.20
70151;DHT22;57517;43.562;19.540;2022-09-27T04:55:16;410.10;2355.20
70151;DHT22;57517;43.562;19.540;2022-09-27T04:57:42;410.20;2355.20
70151;DHT22;57517;43.562;19.540;2022-09-27T05:00:08;410.20;2355.20
70151;DHT22;57517;43.562;19.540;2022-09-27T05:02:34;410.30;2355.20
70151;DHT22;57517;43.562;19.540;2022-09-27T05:05:00;410.40;2355.20
70151;DHT22;57517;43.562;19.540;2022-09-27T05:07:27;410.40;2355.20
70151;DHT22;57517;43.562;19.540;2022-09-27T05:09:53;410.30;2355.20
70151;DHT22;57517;43.562;19.540;2022-09-27T05:12:20;410.40;2355.20
70151;DHT22;57517;43.562;19.540;2022-09-27T05:14:46;410.40;2355.20
70151;DHT22;57517;43.562;19.540;2022-09-27T05:17:12;410.40;2355.20
70151;DHT22;57517;43.562;19.540;2022-09-27T05:19:38;410.40;2355.20
70151;DHT22;57517;43.562;19.540;2022-09-27T05:22:06;410.40;2355.20
70151;DHT22;57517;43.562;19.540;2022-09-27T05:24:33;410.50;2355.20
70151;DHT22;57517;43.562;19.540;2022-09-27T05:27:00;410.50;2355.20
70151;DHT22;57517;43.562;19.540;2022-09-27T05:29:26;410.50;2355.20
70151;DHT22;57517;43.562;19.540;2022-09-27T05:31:52;410.50;2355.20
70151;DHT22;57517;43.562;19.540;2022-09-27T05:34:18;410.50;2355.20
70151;DHT22;57517;43.562;19.540;2022-09-27T05:36:47;410.50;2355.20
70151;DHT22;57517;43.562;19.540;2022-09-27T05:39:13;410.40;2355.20
70151;DHT22;57517;43.562;19.540;2022-09-27T05:41:41;410.30;2355.20
70151;DHT22;57517;43.562;19.540;2022-09-27T05:44:07;410.30;2355.20
70151;DHT22;57517;43.562;19.540;2022-09-27T05:46:33;410.10;2355.20
70151;DHT22;57517;43.562;19.540;2022-09-27T05:48:59;410.10;2355.20
70151;DHT22;57517;43.562;19.540;2022-09-27T05:51:25;410.10;2355.20
70151;DHT22;57517;43.562;19.540;2022-09-27T05:53:50;410.10;2355.20
70151;DHT22;57517;43.562;19.540;2022-09-27T05:56:16;410.10;2355.20
70151;DHT22;57517;43.562;19.540;2022-09-27T05:58:42;410.20;2355.20
70151;DHT22;57517;43.562;19.540;2022-09-27T06:01:09;410.20;2355.20
70151;DHT22;57517;43.562;19.540;2022-09-27T06:03:35;410.20;2355.20
70151;DHT22;57517;43.562;19.540;2022-09-27T06:06:02;410.40;2355.20
70151;DHT22;57517;43.562;19.540;2022-09-27T06:08:38;410.50;2355.20
70151;DHT22;57517;43.562;19.540;2022-09-27T06:11:06;410.40;2355.20
70151;DHT22;57517;43.562;19.540;2022-09-27T06:13:33;410.20;2355.20
70151;DHT22;57517;43.562;19.540;2022-09-27T06:15:59;410.40;2355.20
70151;DHT22;57517;43.562;19.540;2022-09-27T06:18:25;410.50;2355.20
70151;DHT22;57517;43.562;19.540;2022-09-27T06:20:50;435.30;2355.20
70151;DHT22;57517;43.562;19.540;2022-09-27T06:23:22;435.30;2355.20
70151;DHT22;57517;43.562;19.540;2022-09-27T06:25:49;435.20;2355.20
70151;DHT22;57517;43.562;19.540;2022-09-27T06:28:17;435.30;2355.20
70151;DHT22;57517;43.562;19.540;2022-09-27T06:30:45;435.40;2355.20
70151;DHT22;57517;43.562;19.540;2022-09-27T06:33:16;435.30;2355.20
70151;DHT22;57517;43.562;19.540;2022-09-27T06:35:42;435.30;2355.20
70151;DHT22;57517;43.562;19.540;2022-09-27T06:38:14;410.40;2355.20
70151;DHT22;57517;43.562;19.540;2022-09-27T06:40:41;410.30;2355.20
70151;DHT22;57517;43.562;19.540;2022-09-27T06:43:13;410.50;2355.20
70151;DHT22;57517;43.562;19.540;2022-09-27T06:45:39;435.30;2355.20
70151;DHT22;57517;43.562;19.540;2022-09-27T06:48:06;435.30;2355.20
70151;DHT22;57517;43.562;19.540;2022-09-27T06:50:35;435.40;2355.20
70151;DHT22;57517;43.562;19.540;2022-09-27T06:53:04;435.40;2355.20
70151;DHT22;57517;43.562;19.540;2022-09-27T06:55:31;435.30;2355.20
70151;DHT22;57517;43.562;19.540;2022-09-27T06:57:58;435.30;2355.20
70151;DHT22;57517;43.562;19.540;2022-09-27T07:00:43;435.30;2355.20
70151;DHT22;57517;43.562;19.540;2022-09-27T07:03:12;435.40;2355.20
70151;DHT22;57517;43.562;19.540;2022-09-27T07:05:39;435.40;2355.20
70151;DHT22;57517;43.562;19.540;2022-09-27T07:08:10;435.60;2355.20
70151;DHT22;57517;43.562;19.540;2022-09-27T07:10:39;435.60;2355.20
70151;DHT22;57517;43.562;19.540;2022-09-27T07:13:06;435.60;2355.20
70151;DHT22;57517;43.562;19.540;2022-09-27T07:15:36;435.60;2355.20
70151;DHT22;57517;43.562;19.540;2022-09-27T07:18:04;435.70;2355.20
70151;DHT22;57517;43.562;19.540;2022-09-27T07:20:31;435.90;2355.20
70151;DHT22;57517;43.562;19.540;2022-09-27T07:22:58;436.00;2355.20
70151;DHT22;57517;43.562;19.540;2022-09-27T07:25:24;436.00;2355.20
70151;DHT22;57517;43.562;19.540;2022-09-27T07:27:52;436.00;2355.20
70151;DHT22;57517;43.562;19.540;2022-09-27T07:30:19;435.90;2355.20
70151;DHT22;57517;43.562;19.540;2022-09-27T07:32:46;435.70;2355.20
70151;DHT22;57517;43.562;19.540;2022-09-27T07:35:13;435.70;2355.20
70151;DHT22;57517;43.562;19.540;2022-09-27T07:37:40;436.10;2355.20
70151;DHT22;57517;43.562;19.540;2022-09-27T07:40:07;460.90;2380.80
70151;DHT22;57517;43.562;19.540;2022-09-27T07:42:35;460.90;2380.80
70151;DHT22;57517;43.562;19.540;2022-09-27T07:45:05;461.00;2380.80
70151;DHT22;57517;43.562;19.540;2022-09-27T07:47:31;461.20;2380.80
70151;DHT22;57517;43.562;19.540;2022-09-27T07:49:57;461.50;2380.80
70151;DHT22;57517;43.562;19.540;2022-09-27T07:52:23;461.60;2380.80
70151;DHT22;57517;43.562;19.540;2022-09-27T07:54:49;486.40;2380.80
70151;DHT22;57517;43.562;19.540;2022-09-27T07:57:15;461.60;2380.80
70151;DHT22;57517;43.562;19.540;2022-09-27T07:59:41;461.30;2380.80
70151;DHT22;57517;43.562;19.540;2022-09-27T08:02:14;461.20;2380.80
70151;DHT22;57517;43.562;19.540;2022-09-27T08:04:41;461.20;2380.80
70151;DHT22;57517;43.562;19.540;2022-09-27T08:07:17;461.50;2380.80
70151;DHT22;57517;43.562;19.540;2022-09-27T08:09:43;461.70;2380.80
70151;DHT22;57517;43.562;19.540;2022-09-27T08:12:08;486.60;2380.80
70151;DHT22;57517;43.562;19.540;2022-09-27T08:14:35;486.70;2380.80
70151;DHT22;57517;43.562;19.540;2022-09-27T08:17:01;486.70;2380.80
70151;DHT22;57517;43.562;19.540;2022-09-27T08:19:26;486.70;2380.80
70151;DHT22;57517;43.562;19.540;2022-09-27T08:21:52;486.80;2380.80
70151;DHT22;57517;43.562;19.540;2022-09-27T08:24:20;512.80;2380.80
70151;DHT22;57517;43.562;19.540;2022-09-27T08:26:45;564.10;2432.00
70151;DHT22;57517;43.562;19.540;2022-09-27T08:29:11;665.70;2099.20
70151;DHT22;57517;43.562;19.540;2022-09-27T08:31:37;742.60;1740.80
70151;DHT22;57517;43.562;19.540;2022-09-27T08:34:03;768.50;1612.80
70151;DHT22;57517;43.562;19.540;2022-09-27T08:36:29;819.70;1408.00
70151;DHT22;57517;43.562;19.540;2022-09-27T08:38:56;820.10;1228.80
70151;DHT22;57517;43.562;19.540;2022-09-27T08:42:12;819.20;1305.60
70151;DHT22;57517;43.562;19.540;2022-09-27T08:44:31;768.90;1433.60
70151;DHT22;57517;43.562;19.540;2022-09-27T08:47:22;742.60;1536.00
70151;DHT22;57517;43.562;19.540;2022-09-27T08:53:06;794.10;1408.00
70151;DHT22;57517;43.562;19.540;2022-09-27T08:55:44;845.70;1177.60
70151;DHT22;57517;43.562;19.540;2022-09-27T08:58:27;871.00;1100.80
70151;DHT22;57517;43.562;19.540;2022-09-27T09:00:57;845.20;1203.20
70151;DHT22;57517;43.562;19.540;2022-09-27T09:03:26;870.80;1152.00
70151;DHT22;57517;43.562;19.540;2022-09-27T09:06:24;870.80;1152.00
70151;DHT22;57517;43.562;19.540;2022-09-27T09:14:56;819.40;1254.40
70151;DHT22;57517;43.562;19.540;2022-09-27T09:26:12;691.50;1715.20
70151;DHT22;57517;43.562;19.540;2022-09-27T09:34:38;665.70;1920.00
70151;DHT22;57517;43.562;19.540;2022-09-27T09:37:39;665.70;1894.40
70151;DHT22;57517;43.562;19.540;2022-09-27T09:40:12;640.10;1971.20
70151;DHT22;57517;43.562;19.540;2022-09-27T09:43:10;640.00;1971.20
70151;DHT22;57517;43.562;19.540;2022-09-27T09:45:50;614.90;2048.00
70151;DHT22;57517;43.562;19.540;2022-09-27T09:51:14;614.40;2150.40
70151;DHT22;57517;43.562;19.540;2022-09-27T09:56:30;615.10;2073.60
70151;DHT22;57517;43.562;19.540;2022-09-27T09:59:18;614.80;2124.80
70151;DHT22;57517;43.562;19.540;2022-09-27T10:01:46;614.70;2176.00
70151;DHT22;57517;43.562;19.540;2022-09-27T10:06:46;614.70;2201.60
70151;DHT22;57517;43.562;19.540;2022-09-27T10:09:17;614.40;2227.20
70151;DHT22;57517;43.562;19.540;2022-09-27T10:11:46;614.50;2252.80
70151;DHT22;57517;43.562;19.540;2022-09-27T10:14:15;614.40;2252.80
70151;DHT22;57517;43.562;19.540;2022-09-27T10:16:48;614.40;2278.40
70151;DHT22;57517;43.562;19.540;2022-09-27T10:19:24;589.70;2304.00
70151;DHT22;57517;43.562;19.540;2022-09-27T10:21:53;589.60;2252.80
70151;DHT22;57517;43.562;19.540;2022-09-27T10:24:20;589.30;2278.40
70151;DHT22;57517;43.562;19.540;2022-09-27T10:26:47;589.00;2355.20
70151;DHT22;57517;43.562;19.540;2022-09-27T10:29:36;563.90;2432.00
70151;DHT22;57517;43.562;19.540;2022-09-27T10:32:03;563.80;2432.00
70151;DHT22;57517;43.562;19.540;2022-09-27T10:34:48;564.00;2432.00
70151;DHT22;57517;43.562;19.540;2022-09-27T10:37:20;563.30;2432.00
70151;DHT22;57517;43.562;19.540;2022-09-27T10:39:48;538.30;2406.40
70151;DHT22;57517;43.562;19.540;2022-09-27T10:42:19;537.80;2406.40
70151;DHT22;57517;43.562;19.540;2022-09-27T10:44:45;538.10;2406.40
70151;DHT22;57517;43.562;19.540;2022-09-27T10:47:16;563.20;2432.00
70151;DHT22;57517;43.562;19.540;2022-09-27T10:49:48;563.80;2432.00
70151;DHT22;57517;43.562;19.540;2022-09-27T10:52:22;563.90;2432.00
70151;DHT22;57517;43.562;19.540;2022-09-27T10:55:07;563.80;2432.00
70151;DHT22;57517;43.562;19.540;2022-09-27T10:57:38;563.80;2432.00
70151;DHT22;57517;43.562;19.540;2022-09-27T11:00:20;563.60;2432.00
70151;DHT22;57517;43.562;19.540;2022-09-27T11:03:00;563.60;2432.00
70151;DHT22;57517;43.562;19.540;2022-09-27T11:05:36;563.80;2432.00
70151;DHT22;57517;43.562;19.540;2022-09-27T11:10:44;563.40;2432.00
70151;DHT22;57517;43.562;19.540;2022-09-27T11:13:24;563.30;2432.00
70151;DHT22;57517;43.562;19.540;2022-09-27T11:30:19;589.00;2432.00
70151;DHT22;57517;43.562;19.540;2022-09-27T11:33:16;564.10;2432.00
70151;DHT22;57517;43.562;19.540;2022-09-27T11:36:16;563.90;2432.00
70151;DHT22;57517;43.562;19.540;2022-09-27T11:44:15;563.80;2432.00
70151;DHT22;57517;43.562;19.540;2022-09-27T11:57:49;563.40;2432.00
70151;DHT22;57517;43.562;19.540;2022-09-27T12:00:24;563.40;2432.00
70151;DHT22;57517;43.562;19.540;2022-09-27T12:03:08;563.40;2432.00
70151;DHT22;57517;43.562;19.540;2022-09-27T12:14:18;538.30;2406.40
70151;DHT22;57517;43.562;19.540;2022-09-27T12:16:45;538.30;2406.40
70151;DHT22;57517;43.562;19.540;2022-09-27T12:19:51;538.20;2406.40
70151;DHT22;57517;43.562;19.540;2022-09-27T12:22:15;538.40;2406.40
70151;DHT22;57517;43.562;19.540;2022-09-27T12:24:44;538.50;2406.40
70151;DHT22;57517;43.562;19.540;2022-09-27T12:27:42;563.30;2432.00
70151;DHT22;57517;43.562;19.540;2022-09-27T12:30:11;563.30;2432.00
70151;DHT22;57517;43.562;19.540;2022-09-27T12:35:15;538.20;2406.40
70151;DHT22;57517;43.562;19.540;2022-09-27T12:38:01;538.30;2406.40
70151;DHT22;57517;43.562;19.540;2022-09-27T12:40:43;538.20;2406.40
70151;DHT22;57517;43.562;19.540;2022-09-27T12:43:21;538.30;2406.40
70151;DHT22;57517;43.562;19.540;2022-09-27T12:46:00;538.50;2406.40
70151;DHT22;57517;43.562;19.540;2022-09-27T12:51:49;563.40;2380.80
70151;DHT22;57517;43.562;19.540;2022-09-27T12:57:17;563.40;2329.60
70151;DHT22;57517;43.562;19.540;2022-09-27T13:00:08;563.40;2252.80
70151;DHT22;57517;43.562;19.540;2022-09-27T13:13:48;537.70;2329.60
70151;DHT22;57517;43.562;19.540;2022-09-27T13:16:18;512.70;2355.20
70151;DHT22;57517;43.562;19.540;2022-09-27T13:18:49;512.70;2304.00
70151;DHT22;57517;43.562;19.540;2022-09-27T13:29:51;512.70;2304.00
70151;DHT22;57517;43.562;19.540;2022-09-27T13:32:22;512.90;2278.40
70151;DHT22;57517;43.562;19.540;2022-09-27T13:34:51;512.70;2278.40
70151;DHT22;57517;43.562;19.540;2022-09-27T13:40:23;512.70;2278.40
70151;DHT22;57517;43.562;19.540;2022-09-27T13:43:37;512.80;2278.40
70151;DHT22;57517;43.562;19.540;2022-09-27T13:46:05;512.90;2304.00
70151;DHT22;57517;43.562;19.540;2022-09-27T13:49:04;537.70;2304.00
70151;DHT22;57517;43.562;19.540;2022-09-27T13:51:44;537.70;2380.80
70151;DHT22;57517;43.562;19.540;2022-09-27T13:57:04;537.60;2406.40
70151;DHT22;57517;43.562;19.540;2022-09-27T13:59:55;537.60;2406.40
70151;DHT22;57517;43.562;19.540;2022-09-27T14:02:37;512.90;2380.80
70151;DHT22;57517;43.562;19.540;2022-09-27T14:05:09;512.90;2380.80
70151;DHT22;57517;43.562;19.540;2022-09-27T14:07:40;512.70;2329.60
70151;DHT22;57517;43.562;19.540;2022-09-27T14:10:13;512.60;2304.00
70151;DHT22;57517;43.562;19.540;2022-09-27T14:12:40;512.40;2252.80
70151;DHT22;57517;43.562;19.540;2022-09-27T14:15:07;512.40;2227.20
70151;DHT22;57517;43.562;19.540;2022-09-27T14:17:40;512.50;2252.80
70151;DHT22;57517;43.562;19.540;2022-09-27T14:20:35;512.60;2252.80
70151;DHT22;57517;43.562;19.540;2022-09-27T14:23:03;512.80;2278.40
70151;DHT22;57517;43.562;19.540;2022-09-27T14:25:29;512.70;2201.60
70151;DHT22;57517;43.562;19.540;2022-09-27T14:27:55;512.90;2227.20
70151;DHT22;57517;43.562;19.540;2022-09-27T14:30:25;537.60;2252.80
70151;DHT22;57517;43.562;19.540;2022-09-27T14:32:54;537.60;2227.20
70151;DHT22;57517;43.562;19.540;2022-09-27T14:35:25;537.70;2278.40
70151;DHT22;57517;43.562;19.540;2022-09-27T14:38:15;537.70;2252.80
70151;DHT22;57517;43.562;19.540;2022-09-27T14:43:19;537.70;2176.00
70151;DHT22;57517;43.562;19.540;2022-09-27T14:45:47;537.80;2201.60
70151;DHT22;57517;43.562;19.540;2022-09-27T14:48:36;537.80;2278.40
70151;DHT22;57517;43.562;19.540;2022-09-27T14:53:48;537.80;2252.80
70151;DHT22;57517;43.562;19.540;2022-09-27T14:56:24;537.90;2252.80
70151;DHT22;57517;43.562;19.540;2022-09-27T14:59:02;537.90;2252.80
70151;DHT22;57517;43.562;19.540;2022-09-27T15:01:30;537.70;2227.20
70151;DHT22;57517;43.562;19.540;2022-09-27T15:04:04;537.60;2227.20
70151;DHT22;57517;43.562;19.540;2022-09-27T15:06:31;512.90;2227.20
70151;DHT22;57517;43.562;19.540;2022-09-27T15:08:58;537.60;2252.80
70151;DHT22;57517;43.562;19.540;2022-09-27T15:11:24;537.70;2252.80
70151;DHT22;57517;43.562;19.540;2022-09-27T15:13:51;537.60;2227.20
70151;DHT22;57517;43.562;19.540;2022-09-27T15:16:21;537.60;2227.20
70151;DHT22;57517;43.562;19.540;2022-09-27T15:21:43;537.70;2176.00
70151;DHT22;57517;43.562;19.540;2022-09-27T15:24:42;537.80;2227.20
70151;DHT22;57517;43.562;19.540;2022-09-27T15:27:19;537.90;2227.20
70151;DHT22;57517;43.562;19.540;2022-09-27T15:29:56;537.90;2227.20
70151;DHT22;57517;43.562;19.540;2022-09-27T15:32:25;537.90;2252.80
70151;DHT22;57517;43.562;19.540;2022-09-27T15:34:52;538.00;2278.40
70151;DHT22;57517;43.562;19.540;2022-09-27T15:37:27;538.10;2304.00
70151;DHT22;57517;43.562;19.540;2022-09-27T15:39:53;538.00;2329.60
70151;DHT22;57517;43.562;19.540;2022-09-27T15:42:19;537.90;2329.60
70151;DHT22;57517;43.562;19.540;2022-09-27T15:44:51;537.90;2380.80
70151;DHT22;57517;43.562;19.540;2022-09-27T15:52:43;537.60;2406.40
70151;DHT22;57517;43.562;19.540;2022-09-27T15:55:13;537.60;2406.40
70151;DHT22;57517;43.562;19.540;2022-09-27T15:57:40;537.60;2406.40
70151;DHT22;57517;43.562;19.540;2022-09-27T16:00:13;512.70;2380.80
70151;DHT22;57517;43.562;19.540;2022-09-27T16:02:41;512.50;2380.80
70151;DHT22;57517;43.562;19.540;2022-09-27T16:05:07;512.10;2380.80
70151;DHT22;57517;43.562;19.540;2022-09-27T16:07:32;512.00;2380.80
70151;DHT22;57517;43.562;19.540;2022-09-27T16:09:58;512.10;2380.80
70151;DHT22;57517;43.562;19.540;2022-09-27T16:12:24;512.10;2380.80
70151;DHT22;57517;43.562;19.540;2022-09-27T16:14:51;512.10;2380.80
70151;DHT22;57517;43.562;19.540;2022-09-27T16:17:17;512.10;2380.80
70151;DHT22;57517;43.562;19.540;2022-09-27T16:19:43;487.00;2380.80
70151;DHT22;57517;43.562;19.540;2022-09-27T16:22:09;486.80;2380.80
70151;DHT22;57517;43.562;19.540;2022-09-27T16:24:35;486.70;2380.80
70151;DHT22;57517;43.562;19.540;2022-09-27T16:27:01;486.70;2380.80
70151;DHT22;57517;43.562;19.540;2022-09-27T16:29:27;486.80;2380.80
70151;DHT22;57517;43.562;19.540;2022-09-27T16:31:53;486.90;2380.80
70151;DHT22;57517;43.562;19.540;2022-09-27T16:34:19;486.60;2380.80
70151;DHT22;57517;43.562;19.540;2022-09-27T16:36:44;486.50;2380.80
70151;DHT22;57517;43.562;19.540;2022-09-27T16:39:12;486.40;2380.80
70151;DHT22;57517;43.562;19.540;2022-09-27T16:41:38;461.60;2380.80
70151;DHT22;57517;43.562;19.540;2022-09-27T16:44:12;461.70;2380.80
70151;DHT22;57517;43.562;19.540;2022-09-27T16:46:42;461.70;2380.80
70151;DHT22;57517;43.562;19.540;2022-09-27T16:49:10;461.70;2380.80
70151;DHT22;57517;43.562;19.540;2022-09-27T16:51:55;461.60;2380.80
70151;DHT22;57517;43.562;19.540;2022-09-27T16:54:29;461.40;2380.80
70151;DHT22;57517;43.562;19.540;2022-09-27T16:56:57;461.30;2380.80
70151;DHT22;57517;43.562;19.540;2022-09-27T16:59:23;461.20;2380.80
70151;DHT22;57517;43.562;19.540;2022-09-27T17:01:52;460.90;2380.80
70151;DHT22;57517;43.562;19.540;2022-09-27T17:04:22;436.00;2355.20
70151;DHT22;57517;43.562;19.540;2022-09-27T17:06:48;435.90;2355.20
70151;DHT22;57517;43.562;19.540;2022-09-27T17:09:14;435.70;2355.20
70151;DHT22;57517;43.562;19.540;2022-09-27T17:11:40;435.70;2355.20
70151;DHT22;57517;43.562;19.540;2022-09-27T17:14:05;435.60;2355.20
70151;DHT22;57517;43.562;19.540;2022-09-27T17:16:31;435.40;2355.20
70151;DHT22;57517;43.562;19.540;2022-09-27T17:18:57;435.40;2355.20
70151;DHT22;57517;43.562;19.540;2022-09-27T17:21:23;435.40;2355.20
70151;DHT22;57517;43.562;19.540;2022-09-27T17:23:50;435.30;2355.20
70151;DHT22;57517;43.562;19.540;2022-09-27T17:26:18;435.30;2355.20
70151;DHT22;57517;43.562;19.540;2022-09-27T17:28:45;435.20;2355.20
70151;DHT22;57517;43.562;19.540;2022-09-27T17:31:14;410.50;2355.20
70151;DHT22;57517;43.562;19.540;2022-09-27T17:33:50;410.50;2355.20
70151;DHT22;57517;43.562;19.540;2022-09-27T17:36:22;410.50;2355.20